createdAt,value
2017-07-19T00:00:09.777Z,0
2017-07-19T00:01:09.755Z,0
2017-07-19T00:02:09.735Z,0
2017-07-19T00:03:09.717Z,0
2017-07-19T00:04:09.089Z,0
2017-07-19T00:05:09.711Z,0
2017-07-19T00:06:09.817Z,0
2017-07-19T00:07:09.638Z,0
2017-07-19T00:08:09.610Z,0
2017-07-19T00:09:09.605Z,0
2017-07-19T00:10:09.573Z,0
2017-07-19T00:11:09.561Z,0
2017-07-19T00:12:09.537Z,0
2017-07-19T00:13:09.517Z,0
2017-07-19T00:14:09.198Z,0
2017-07-19T00:15:09.195Z,0
2017-07-19T00:16:09.468Z,0
2017-07-19T00:17:09.440Z,0
2017-07-19T00:18:09.415Z,0
2017-07-19T00:19:09.404Z,0
2017-07-19T00:20:09.387Z,0
2017-07-19T00:21:09.355Z,0
2017-07-19T00:22:09.393Z,0
2017-07-19T00:23:09.017Z,0
2017-07-19T00:24:09.305Z,0
2017-07-19T00:25:09.282Z,0
2017-07-19T00:26:09.269Z,0
2017-07-19T00:27:09.246Z,0
2017-07-19T00:28:09.217Z,0
2017-07-19T00:29:09.199Z,0
2017-07-19T00:30:09.197Z,0
2017-07-19T00:31:09.156Z,0
2017-07-19T00:32:09.143Z,0
2017-07-19T00:33:09.125Z,0
2017-07-19T00:34:08.802Z,0
2017-07-19T00:35:09.087Z,0
2017-07-19T00:36:09.070Z,0
2017-07-19T00:37:09.054Z,0
2017-07-19T00:38:09.031Z,0
2017-07-19T00:39:09.038Z,0
2017-07-19T00:40:08.993Z,0
2017-07-19T00:41:08.963Z,0
2017-07-19T00:42:08.948Z,0
2017-07-19T00:43:08.623Z,0
2017-07-19T00:44:08.954Z,0
2017-07-19T00:45:08.899Z,0
2017-07-19T00:46:08.611Z,0
2017-07-19T00:47:08.846Z,0
2017-07-19T00:48:08.823Z,0
2017-07-19T00:49:08.804Z,0
2017-07-19T00:50:08.484Z,0
2017-07-19T00:51:08.771Z,0
2017-07-19T00:52:08.740Z,0
2017-07-19T00:53:08.429Z,0
2017-07-19T00:54:08.714Z,0
2017-07-19T00:55:08.680Z,0
2017-07-19T00:56:08.663Z,0
2017-07-19T00:57:08.646Z,0
2017-07-19T00:58:08.625Z,0
2017-07-19T00:59:08.604Z,0
2017-07-19T01:00:08.601Z,0
2017-07-19T01:01:08.580Z,0
2017-07-19T01:02:08.548Z,0
2017-07-19T01:03:08.524Z,0
2017-07-19T01:04:08.513Z,0
2017-07-19T01:05:08.490Z,0
2017-07-19T01:06:08.463Z,0
2017-07-19T01:07:08.446Z,0
2017-07-19T01:08:08.632Z,0
2017-07-19T01:09:08.565Z,0
2017-07-19T01:10:08.382Z,0
2017-07-19T01:11:08.064Z,0
2017-07-19T01:12:08.348Z,0
2017-07-19T01:13:08.328Z,0
2017-07-19T01:14:08.306Z,0
2017-07-19T01:15:08.284Z,0
2017-07-19T01:16:08.267Z,0
2017-07-19T01:17:08.246Z,0
2017-07-19T01:18:08.228Z,0
2017-07-19T01:19:08.219Z,0
2017-07-19T01:20:08.187Z,0
2017-07-19T01:21:08.241Z,0
2017-07-19T01:22:08.149Z,0
2017-07-19T01:23:07.851Z,0
2017-07-19T01:24:08.107Z,0
2017-07-19T01:25:08.089Z,0
2017-07-19T01:26:08.068Z,0
2017-07-19T01:27:08.177Z,0
2017-07-19T01:28:08.027Z,0
2017-07-19T01:29:08.006Z,0
2017-07-19T01:30:07.992Z,0
2017-07-19T01:31:07.975Z,0
2017-07-19T01:32:07.956Z,0
2017-07-19T01:33:07.928Z,0
2017-07-19T01:34:07.923Z,0
2017-07-19T01:35:07.890Z,0
2017-07-19T01:36:07.896Z,0
2017-07-19T01:37:07.845Z,0
2017-07-19T01:38:07.832Z,0
2017-07-19T01:39:07.804Z,0
2017-07-19T01:40:07.788Z,0
2017-07-19T01:41:07.761Z,0
2017-07-19T01:42:07.762Z,0
2017-07-19T01:43:07.722Z,0
2017-07-19T01:44:07.711Z,0
2017-07-19T01:45:07.682Z,0
2017-07-19T01:46:07.673Z,0
2017-07-19T01:47:07.652Z,0
2017-07-19T01:48:07.624Z,0
2017-07-19T01:49:07.608Z,0
2017-07-19T01:50:07.592Z,0
2017-07-19T01:51:07.564Z,0
2017-07-19T01:52:07.545Z,0
2017-07-19T01:53:07.526Z,0
2017-07-19T01:54:07.504Z,0
2017-07-19T01:55:07.485Z,0
2017-07-19T01:56:07.465Z,0
2017-07-19T01:57:07.505Z,0
2017-07-19T01:58:07.424Z,0
2017-07-19T01:59:07.405Z,0
2017-07-19T02:00:07.385Z,0
2017-07-19T02:01:07.363Z,0
2017-07-19T02:02:07.346Z,0
2017-07-19T02:03:07.026Z,0
2017-07-19T02:04:07.013Z,0
2017-07-19T02:05:07.287Z,0
2017-07-19T02:06:07.258Z,0
2017-07-19T02:07:07.246Z,0
2017-07-19T02:08:06.622Z,0
2017-07-19T02:09:07.203Z,0
2017-07-19T02:10:07.151Z,0
2017-07-19T02:11:07.175Z,0
2017-07-19T02:12:06.842Z,0
2017-07-19T02:13:06.818Z,0
2017-07-19T02:14:07.107Z,0
2017-07-19T02:15:07.095Z,0
2017-07-19T02:16:07.066Z,0
2017-07-19T02:17:07.045Z,0
2017-07-19T02:18:07.034Z,0
2017-07-19T02:19:07.005Z,0
2017-07-19T02:20:06.991Z,0
2017-07-19T02:21:06.965Z,0
2017-07-19T02:22:06.944Z,0
2017-07-19T02:23:06.961Z,0
2017-07-19T02:24:06.611Z,0
2017-07-19T02:25:06.939Z,0
2017-07-19T02:26:06.861Z,0
2017-07-19T02:27:06.909Z,0
2017-07-19T02:28:06.883Z,0
2017-07-19T02:29:06.798Z,0
2017-07-19T02:30:06.849Z,0
2017-07-19T02:31:06.783Z,0
2017-07-19T02:32:06.747Z,0
2017-07-19T02:33:06.731Z,0
2017-07-19T02:34:06.698Z,0
2017-07-19T02:35:06.747Z,0
2017-07-19T02:36:06.655Z,0
2017-07-19T02:37:06.344Z,0
2017-07-19T02:38:06.632Z,0
2017-07-19T02:39:06.316Z,0
2017-07-19T02:40:06.587Z,0
2017-07-19T02:41:06.560Z,0
2017-07-19T02:42:06.547Z,0
2017-07-19T02:43:06.523Z,0
2017-07-19T02:44:06.260Z,0
2017-07-19T02:45:06.604Z,0
2017-07-19T02:46:06.486Z,0
2017-07-19T02:47:06.448Z,0
2017-07-19T02:48:06.427Z,4
2017-07-19T02:49:06.408Z,4
2017-07-19T02:50:06.448Z,4
2017-07-19T02:51:06.362Z,0
2017-07-19T02:52:06.356Z,0
2017-07-19T02:53:06.330Z,4
2017-07-19T02:54:06.008Z,4
2017-07-19T02:55:06.285Z,4
2017-07-19T02:56:05.972Z,4
2017-07-19T02:57:06.246Z,4
2017-07-19T02:58:06.224Z,4
2017-07-19T02:59:06.204Z,8
2017-07-19T03:00:06.191Z,8
2017-07-19T03:01:06.161Z,8
2017-07-19T03:02:06.136Z,8
2017-07-19T03:03:06.120Z,8
2017-07-19T03:04:06.160Z,12
2017-07-19T03:05:06.085Z,16
2017-07-19T03:06:05.770Z,16
2017-07-19T03:07:06.051Z,20
2017-07-19T03:08:06.029Z,20
2017-07-19T03:09:06.001Z,24
2017-07-19T03:10:06.035Z,24
2017-07-19T03:11:05.963Z,32
2017-07-19T03:12:05.937Z,36
2017-07-19T03:13:05.618Z,36
2017-07-19T03:14:05.896Z,44
2017-07-19T03:15:05.879Z,44
2017-07-19T03:16:05.561Z,52
2017-07-19T03:17:05.845Z,60
2017-07-19T03:18:05.515Z,68
2017-07-19T03:19:05.554Z,76
2017-07-19T03:20:05.809Z,84
2017-07-19T03:21:05.777Z,92
2017-07-19T03:22:05.741Z,104
2017-07-19T03:23:05.796Z,116
2017-07-19T03:24:05.707Z,128
2017-07-19T03:25:05.387Z,140
2017-07-19T03:26:05.357Z,156
2017-07-19T03:27:05.660Z,168
2017-07-19T03:28:05.617Z,176
2017-07-19T03:29:05.599Z,188
2017-07-19T03:30:05.285Z,204
2017-07-19T03:31:05.263Z,216
2017-07-19T03:32:05.536Z,232
2017-07-19T03:33:05.227Z,252
2017-07-19T03:34:05.538Z,268
2017-07-19T03:35:05.184Z,292
2017-07-19T03:36:05.464Z,312
2017-07-19T03:37:05.502Z,336
2017-07-19T03:38:05.414Z,364
2017-07-19T03:39:05.401Z,392
2017-07-19T03:40:05.078Z,420
2017-07-19T03:41:05.361Z,452
2017-07-19T03:42:05.338Z,476
2017-07-19T03:43:05.324Z,504
2017-07-19T03:44:05.303Z,536
2017-07-19T03:45:05.280Z,572
2017-07-19T03:46:05.275Z,604
2017-07-19T03:47:05.241Z,632
2017-07-19T03:48:04.922Z,668
2017-07-19T03:49:05.209Z,704
2017-07-19T03:50:05.191Z,744
2017-07-19T03:51:05.161Z,792
2017-07-19T03:52:05.134Z,840
2017-07-19T03:53:05.121Z,884
2017-07-19T03:54:05.103Z,936
2017-07-19T03:55:05.084Z,992
2017-07-19T03:56:05.058Z,1044
2017-07-19T03:57:05.036Z,1104
2017-07-19T03:58:05.016Z,1172
2017-07-19T03:59:04.995Z,1240
2017-07-19T04:00:04.979Z,1304
2017-07-19T04:01:04.955Z,1376
2017-07-19T04:02:04.941Z,1456
2017-07-19T04:03:04.908Z,1552
2017-07-19T04:04:04.900Z,1640
2017-07-19T04:05:04.882Z,1724
2017-07-19T04:06:04.857Z,1824
2017-07-19T04:07:04.837Z,1924
2017-07-19T04:08:04.508Z,1980
2017-07-19T04:09:04.499Z,2072
2017-07-19T04:10:04.774Z,2260
2017-07-19T04:11:04.464Z,2368
2017-07-19T04:12:04.724Z,2468
2017-07-19T04:13:04.714Z,2560
2017-07-19T04:14:04.691Z,2740
2017-07-19T04:15:04.678Z,2956
2017-07-19T04:16:04.656Z,3084
2017-07-19T04:17:04.634Z,3216
2017-07-19T04:18:04.323Z,3468
2017-07-19T04:19:04.595Z,3600
2017-07-19T04:20:04.577Z,3652
2017-07-19T04:21:04.560Z,3732
2017-07-19T04:22:04.541Z,3784
2017-07-19T04:23:04.515Z,3800
2017-07-19T04:24:04.515Z,3676
2017-07-19T04:25:04.175Z,3412
2017-07-19T04:26:04.467Z,3136
2017-07-19T04:27:04.443Z,3132
2017-07-19T04:28:04.420Z,3120
2017-07-19T04:29:04.452Z,3112
2017-07-19T04:30:04.388Z,3136
2017-07-19T04:31:04.068Z,3440
2017-07-19T04:32:04.334Z,3932
2017-07-19T04:33:04.323Z,4228
2017-07-19T04:34:04.303Z,4260
2017-07-19T04:35:04.283Z,4400
2017-07-19T04:36:04.270Z,4608
2017-07-19T04:37:04.243Z,4704
2017-07-19T04:38:04.222Z,4748
2017-07-19T04:39:04.204Z,4752
2017-07-19T04:40:04.189Z,4520
2017-07-19T04:41:04.074Z,4432
2017-07-19T04:42:04.148Z,4484
2017-07-19T04:43:04.133Z,4612
2017-07-19T04:44:04.132Z,4648
2017-07-19T04:45:04.090Z,4672
2017-07-19T04:46:04.078Z,4804
2017-07-19T04:47:04.052Z,5152
2017-07-19T04:48:04.036Z,5700
2017-07-19T04:49:04.018Z,6164
2017-07-19T04:50:03.990Z,6452
2017-07-19T04:51:03.978Z,6748
2017-07-19T04:52:03.966Z,7412
2017-07-19T04:53:03.938Z,7740
2017-07-19T04:54:03.920Z,7864
2017-07-19T04:55:03.892Z,8088
2017-07-19T04:56:03.881Z,8524
2017-07-19T04:57:03.559Z,8800
2017-07-19T04:58:03.843Z,9024
2017-07-19T04:59:03.818Z,9196
2017-07-19T05:00:03.807Z,9416
2017-07-19T05:01:03.487Z,9576
2017-07-19T05:02:03.472Z,9508
2017-07-19T05:03:03.759Z,9692
2017-07-19T05:04:03.728Z,9740
2017-07-19T05:05:03.721Z,10200
2017-07-19T05:06:03.718Z,10084
2017-07-19T05:07:03.429Z,10544
2017-07-19T05:08:03.353Z,10564
2017-07-19T05:09:03.632Z,10904
2017-07-19T05:10:03.625Z,10824
2017-07-19T05:11:03.316Z,11184
2017-07-19T05:12:03.597Z,11460
2017-07-19T05:13:03.266Z,11596
2017-07-19T05:14:03.554Z,11740
2017-07-19T05:15:03.543Z,11544
2017-07-19T05:16:03.211Z,11640
2017-07-19T05:17:03.507Z,11648
2017-07-19T05:18:03.474Z,11744
2017-07-19T05:19:03.459Z,12056
2017-07-19T05:20:03.148Z,12108
2017-07-19T05:21:03.485Z,11912
2017-07-19T05:22:03.442Z,11648
2017-07-19T05:23:03.393Z,11872
2017-07-19T05:24:03.417Z,11788
2017-07-19T05:25:03.068Z,11960
2017-07-19T05:26:03.087Z,11948
2017-07-19T05:27:03.324Z,11884
2017-07-19T05:28:03.015Z,11832
2017-07-19T05:29:03.293Z,12196
2017-07-19T05:30:03.281Z,12512
2017-07-19T05:31:03.259Z,12896
2017-07-19T05:32:03.249Z,13456
2017-07-19T05:33:03.010Z,13968
2017-07-19T05:34:03.210Z,14000
2017-07-19T05:35:03.202Z,15424
2017-07-19T05:36:03.170Z,16416
2017-07-19T05:37:03.167Z,16864
2017-07-19T05:38:03.138Z,17344
2017-07-19T05:39:02.823Z,17248
2017-07-19T05:40:03.112Z,17184
2017-07-19T05:41:03.093Z,17152
2017-07-19T05:42:03.085Z,17152
2017-07-19T05:43:02.762Z,16992
2017-07-19T05:44:03.044Z,13628
2017-07-19T05:45:02.730Z,13852
2017-07-19T05:46:03.028Z,15616
2017-07-19T05:47:03.005Z,15904
2017-07-19T05:48:02.895Z,16736
2017-07-19T05:49:02.965Z,17216
2017-07-19T05:50:02.668Z,17024
2017-07-19T05:51:02.828Z,17152
2017-07-19T05:52:02.917Z,17760
2017-07-19T05:53:02.898Z,17024
2017-07-19T05:54:02.586Z,16480
2017-07-19T05:55:02.877Z,16512
2017-07-19T05:56:02.868Z,15712
2017-07-19T05:57:02.239Z,14552
2017-07-19T05:58:02.827Z,14544
2017-07-19T05:59:02.854Z,16576
2017-07-19T06:00:02.498Z,17152
2017-07-19T06:01:02.784Z,16896
2017-07-19T06:02:02.767Z,18144
2017-07-19T06:03:02.454Z,17856
2017-07-19T06:04:02.734Z,17728
2017-07-19T06:05:02.527Z,18592
2017-07-19T06:06:02.400Z,19168
2017-07-19T06:07:02.706Z,19904
2017-07-19T06:08:02.673Z,19040
2017-07-19T06:09:02.649Z,19488
2017-07-19T06:10:02.645Z,19936
2017-07-19T06:11:02.345Z,20352
2017-07-19T06:12:02.307Z,20608
2017-07-19T06:13:02.607Z,20448
2017-07-19T06:14:02.585Z,21120
2017-07-19T06:15:02.284Z,21920
2017-07-19T06:16:02.622Z,22976
2017-07-19T06:17:02.556Z,23072
2017-07-19T06:18:02.598Z,23904
2017-07-19T06:19:02.219Z,24768
2017-07-19T06:20:02.507Z,23680
2017-07-19T06:21:02.484Z,23008
2017-07-19T06:22:02.459Z,22816
2017-07-19T06:23:02.157Z,21472
2017-07-19T06:24:02.442Z,21888
2017-07-19T06:25:02.480Z,21248
2017-07-19T06:26:02.421Z,21344
2017-07-19T06:27:02.394Z,21856
2017-07-19T06:28:02.377Z,21792
2017-07-19T06:29:02.385Z,23392
2017-07-19T06:30:02.356Z,23648
2017-07-19T06:31:02.353Z,24544
2017-07-19T06:32:02.031Z,25696
2017-07-19T06:33:02.327Z,26816
2017-07-19T06:34:02.009Z,27456
2017-07-19T06:35:02.279Z,28256
2017-07-19T06:36:02.268Z,28992
2017-07-19T06:37:02.280Z,27808
2017-07-19T06:38:02.248Z,26304
2017-07-19T06:39:02.294Z,25728
2017-07-19T06:40:02.213Z,25632
2017-07-19T06:41:02.256Z,27456
2017-07-19T06:42:02.200Z,28288
2017-07-19T06:43:02.173Z,27040
2017-07-19T06:44:01.872Z,26432
2017-07-19T06:45:02.157Z,27232
2017-07-19T06:46:02.137Z,28672
2017-07-19T06:47:02.141Z,30240
2017-07-19T06:48:02.119Z,30048
2017-07-19T06:49:02.096Z,28512
2017-07-19T06:50:02.082Z,28224
2017-07-19T06:51:02.074Z,29792
2017-07-19T06:52:02.055Z,31136
2017-07-19T06:53:02.062Z,31648
2017-07-19T06:54:02.081Z,32064
2017-07-19T06:55:02.029Z,32768
2017-07-19T06:56:02.015Z,34016
2017-07-19T06:57:01.995Z,33824
2017-07-19T06:58:02.035Z,32192
2017-07-19T06:59:01.968Z,31072
2017-07-19T07:00:01.952Z,32384
2017-07-19T07:01:01.943Z,34624
2017-07-19T07:02:01.926Z,36512
2017-07-19T07:03:01.917Z,37024
2017-07-19T07:04:01.912Z,36000
2017-07-19T07:05:01.890Z,34592
2017-07-19T07:06:01.895Z,35296
2017-07-19T07:07:01.875Z,36832
2017-07-19T07:08:01.863Z,36576
2017-07-19T07:09:01.562Z,34144
2017-07-19T07:10:01.537Z,31392
2017-07-19T07:11:01.841Z,30656
2017-07-19T07:12:01.882Z,30176
2017-07-19T07:13:01.807Z,30624
2017-07-19T07:14:01.807Z,32064
2017-07-19T07:15:01.796Z,33920
2017-07-19T07:16:01.776Z,34336
2017-07-19T07:17:01.777Z,36576
2017-07-19T07:18:01.748Z,35776
2017-07-19T07:19:01.739Z,34720
2017-07-19T07:20:01.425Z,33504
2017-07-19T07:21:01.719Z,32640
2017-07-19T07:22:01.710Z,32032
2017-07-19T07:23:01.694Z,35488
2017-07-19T07:24:01.683Z,35904
2017-07-19T07:25:01.722Z,36768
2017-07-19T07:26:01.662Z,37184
2017-07-19T07:27:01.675Z,35776
2017-07-19T07:28:01.648Z,34080
2017-07-19T07:29:01.637Z,33408
2017-07-19T07:30:01.632Z,32640
2017-07-19T07:31:01.610Z,33696
2017-07-19T07:32:01.591Z,33504
2017-07-19T07:33:01.284Z,33728
2017-07-19T07:34:01.573Z,34528
2017-07-19T07:35:01.570Z,34208
2017-07-19T07:36:01.553Z,33248
2017-07-19T07:37:01.554Z,33152
2017-07-19T07:38:01.530Z,35424
2017-07-19T07:39:01.523Z,37056
2017-07-19T07:40:01.514Z,38176
2017-07-19T07:41:01.199Z,35520
2017-07-19T07:42:01.184Z,35072
2017-07-19T07:43:01.486Z,34336
2017-07-19T07:44:01.484Z,33536
2017-07-19T07:45:01.464Z,35040
2017-07-19T07:46:01.445Z,32224
2017-07-19T07:47:01.440Z,34688
2017-07-19T07:48:01.475Z,35872
2017-07-19T07:49:01.418Z,37984
2017-07-19T07:50:01.421Z,37312
2017-07-19T07:51:01.396Z,38528
2017-07-19T07:52:01.389Z,42240
2017-07-19T07:53:01.374Z,43648
2017-07-19T07:54:01.068Z,44640
2017-07-19T07:55:01.052Z,43552
2017-07-19T07:56:01.348Z,43136
2017-07-19T07:57:01.340Z,43744
2017-07-19T07:58:01.329Z,41760
2017-07-19T07:59:01.313Z,42080
2017-07-19T08:00:01.306Z,41024
2017-07-19T08:01:01.351Z,42464
2017-07-19T08:02:01.289Z,43200
2017-07-19T08:03:01.286Z,41856
2017-07-19T08:04:01.297Z,42976
2017-07-19T08:05:00.953Z,40736
2017-07-19T08:06:01.254Z,42464
2017-07-19T08:07:01.245Z,42432
2017-07-19T08:08:01.222Z,41472
2017-07-19T08:09:01.250Z,41760
2017-07-19T08:10:00.905Z,39840
2017-07-19T08:11:01.202Z,41056
2017-07-19T08:12:01.189Z,45280
2017-07-19T08:13:01.176Z,45280
2017-07-19T08:14:01.161Z,43360
2017-07-19T08:15:00.870Z,42176
2017-07-19T08:16:01.168Z,43040
2017-07-19T08:17:01.135Z,47840
2017-07-19T08:18:00.824Z,51296
2017-07-19T08:19:00.490Z,52096
2017-07-19T08:20:01.101Z,51328
2017-07-19T08:21:01.092Z,50240
2017-07-19T08:22:00.794Z,49568
2017-07-19T08:23:01.073Z,49920
2017-07-19T08:24:01.066Z,50912
2017-07-19T08:25:00.768Z,46848
2017-07-19T08:26:01.060Z,49472
2017-07-19T08:27:01.038Z,49056
2017-07-19T08:28:00.744Z,43200
2017-07-19T08:29:01.031Z,40640
2017-07-19T08:30:00.723Z,45056
2017-07-19T08:31:01.009Z,43616
2017-07-19T08:32:00.990Z,44128
2017-07-19T08:33:00.988Z,45344
2017-07-19T08:34:01.046Z,41856
2017-07-19T08:35:00.964Z,44224
2017-07-19T08:36:00.962Z,46048
2017-07-19T08:37:00.946Z,48928
2017-07-19T08:38:00.943Z,42464
2017-07-19T08:39:00.997Z,45088
2017-07-19T08:40:00.626Z,45120
2017-07-19T08:41:00.613Z,43488
2017-07-19T08:42:00.917Z,42848
2017-07-19T08:43:00.907Z,40608
2017-07-19T08:44:00.890Z,37600
2017-07-19T08:45:00.883Z,40160
2017-07-19T08:46:00.870Z,35456
2017-07-19T08:47:00.861Z,32928
2017-07-19T08:48:00.859Z,33888
2017-07-19T08:49:00.844Z,34624
2017-07-19T08:50:00.836Z,40448
2017-07-19T08:51:00.827Z,37408
2017-07-19T08:52:00.893Z,35808
2017-07-19T08:53:00.805Z,33184
2017-07-19T08:54:00.803Z,35456
2017-07-19T08:55:00.787Z,43840
2017-07-19T08:56:00.790Z,42144
2017-07-19T08:57:00.775Z,42976
2017-07-19T08:58:00.762Z,45792
2017-07-19T08:59:00.754Z,47264
2017-07-19T09:00:00.743Z,45856
2017-07-19T09:01:00.727Z,48896
2017-07-19T09:02:00.726Z,36896
2017-07-19T09:03:00.712Z,32544
2017-07-19T09:04:00.699Z,28672
2017-07-19T09:05:00.687Z,34048
2017-07-19T09:06:00.701Z,32576
2017-07-19T09:07:00.682Z,36224
2017-07-19T09:08:00.664Z,46080
2017-07-19T09:09:00.353Z,52672
2017-07-19T09:10:00.334Z,58816
2017-07-19T09:11:00.629Z,57984
2017-07-19T09:12:00.628Z,52320
2017-07-19T09:13:00.621Z,56448
2017-07-19T09:14:00.613Z,56256
2017-07-19T09:15:00.601Z,57728
2017-07-19T09:16:00.589Z,51872
2017-07-19T09:17:00.280Z,48352
2017-07-19T09:18:00.571Z,43744
2017-07-19T09:19:00.360Z,45760
2017-07-19T09:20:00.548Z,41824
2017-07-19T09:21:00.546Z,32256
2017-07-19T09:22:00.536Z,31712
2017-07-19T09:23:00.638Z,41024
2017-07-19T09:24:00.508Z,40800
2017-07-19T09:25:00.202Z,37344
2017-07-19T09:26:00.489Z,38848
2017-07-19T09:27:00.486Z,38720
2017-07-19T09:28:00.481Z,33760
2017-07-19T09:29:00.564Z,42240
2017-07-19T09:30:00.149Z,40192
2017-07-19T09:31:00.495Z,39264
2017-07-19T09:32:00.436Z,46304
2017-07-19T09:33:00.426Z,50592
2017-07-19T09:34:00.530Z,56288
2017-07-19T09:35:00.112Z,56096
2017-07-19T09:36:00.404Z,63648
2017-07-19T09:37:00.089Z,69056
2017-07-19T09:38:00.385Z,73952
2017-07-19T09:39:00.365Z,76128
2017-07-19T09:40:00.362Z,78624
2017-07-19T09:41:00.399Z,77440
2017-07-19T09:42:00.394Z,64352
2017-07-19T09:43:00.340Z,44448
2017-07-19T09:44:00.329Z,41760
2017-07-19T09:45:00.014Z,41088
2017-07-19T09:46:00.310Z,42720
2017-07-19T09:47:00.416Z,59296
2017-07-19T09:48:00.357Z,66720
2017-07-19T09:49:00.285Z,65152
2017-07-19T09:50:00.275Z,52352
2017-07-19T09:51:00.268Z,58688
2017-07-19T09:51:59.973Z,63104
2017-07-19T09:52:59.967Z,65216
2017-07-19T09:54:00.239Z,63744
2017-07-19T09:54:59.929Z,68352
2017-07-19T09:56:00.232Z,72192
2017-07-19T09:57:00.215Z,78496
2017-07-19T09:58:00.212Z,75104
2017-07-19T09:59:00.201Z,70112
2017-07-19T10:00:00.201Z,67072
2017-07-19T10:00:59.897Z,65504
2017-07-19T10:02:00.185Z,59456
2017-07-19T10:03:00.188Z,55200
2017-07-19T10:04:00.173Z,54272
2017-07-19T10:05:00.160Z,60000
2017-07-19T10:06:00.148Z,64224
2017-07-19T10:07:00.153Z,61728
2017-07-19T10:08:00.151Z,62688
2017-07-19T10:09:00.150Z,64512
2017-07-19T10:10:00.133Z,64192
2017-07-19T10:11:00.217Z,64992
2017-07-19T10:12:00.132Z,66720
2017-07-19T10:12:59.802Z,70368
2017-07-19T10:13:59.808Z,72384
2017-07-19T10:15:00.089Z,73600
2017-07-19T10:16:00.085Z,72160
2017-07-19T10:17:00.077Z,68736
2017-07-19T10:18:00.114Z,63712
2017-07-19T10:19:00.065Z,63744
2017-07-19T10:20:00.053Z,65632
2017-07-19T10:21:00.056Z,67328
2017-07-19T10:22:00.047Z,68736
2017-07-19T10:23:00.036Z,72640
2017-07-19T10:23:59.725Z,77216
2017-07-19T10:25:00.020Z,79520
2017-07-19T10:26:00.022Z,79136
2017-07-19T10:27:00.007Z,77184
2017-07-19T10:28:00.100Z,75456
2017-07-19T10:29:00.009Z,76256
2017-07-19T10:29:59.987Z,80768
2017-07-19T10:30:59.980Z,84736
2017-07-19T10:31:59.730Z,88928
2017-07-19T10:32:59.973Z,91008
2017-07-19T10:33:59.980Z,92480
2017-07-19T10:34:59.971Z,91136
2017-07-19T10:35:59.973Z,89760
2017-07-19T10:36:59.957Z,89120
2017-07-19T10:37:59.991Z,89056
2017-07-19T10:38:59.944Z,89472
2017-07-19T10:39:59.941Z,89440
2017-07-19T10:40:59.983Z,88256
2017-07-19T10:41:59.920Z,86080
2017-07-19T10:42:59.940Z,85312
2017-07-19T10:43:59.967Z,85952
2017-07-19T10:44:59.913Z,87072
2017-07-19T10:45:59.909Z,88064
2017-07-19T10:46:59.883Z,87264
2017-07-19T10:47:59.888Z,86240
2017-07-19T10:48:59.882Z,84992
2017-07-19T10:49:59.881Z,84864
2017-07-19T10:50:59.866Z,85280
2017-07-19T10:51:59.869Z,85920
2017-07-19T10:52:59.866Z,87040
2017-07-19T10:53:59.854Z,88160
2017-07-19T10:54:59.854Z,88064
2017-07-19T10:55:59.848Z,86976
2017-07-19T10:56:59.838Z,86816
2017-07-19T10:57:59.829Z,88288
2017-07-19T10:58:59.855Z,88992
2017-07-19T10:59:59.814Z,86656
2017-07-19T11:00:59.824Z,85152
2017-07-19T11:01:59.809Z,82688
2017-07-19T11:02:59.801Z,81728
2017-07-19T11:03:59.493Z,84544
2017-07-19T11:04:59.802Z,88576
2017-07-19T11:05:59.784Z,92608
2017-07-19T11:06:59.842Z,96000
2017-07-19T11:07:59.775Z,96608
2017-07-19T11:08:59.773Z,94144
2017-07-19T11:09:59.762Z,89632
2017-07-19T11:10:59.758Z,87264
2017-07-19T11:11:59.453Z,86368
2017-07-19T11:12:59.754Z,88832
2017-07-19T11:13:59.748Z,91712
2017-07-19T11:14:59.748Z,94112
2017-07-19T11:15:59.970Z,91808
2017-07-19T11:16:59.730Z,87744
2017-07-19T11:17:59.731Z,78656
2017-07-19T11:18:59.718Z,39744
2017-07-19T11:19:59.713Z,10492
2017-07-19T11:20:59.711Z,9880
2017-07-19T11:21:59.702Z,9776
2017-07-19T11:22:59.991Z,9732
2017-07-19T11:23:59.695Z,9780
2017-07-19T11:24:59.384Z,9756
2017-07-19T11:25:59.673Z,9828
2017-07-19T11:26:59.662Z,9892
2017-07-19T11:27:59.703Z,9956
2017-07-19T11:28:59.344Z,9936
2017-07-19T11:29:59.349Z,9968
2017-07-19T11:30:59.631Z,10120
2017-07-19T11:31:59.622Z,10216
2017-07-19T11:32:59.611Z,10360
2017-07-19T11:33:59.598Z,10404
2017-07-19T11:34:59.610Z,10348
2017-07-19T11:35:59.595Z,10120
2017-07-19T11:36:59.575Z,9992
2017-07-19T11:37:59.565Z,9976
2017-07-19T11:38:59.546Z,10012
2017-07-19T11:39:59.745Z,9932
2017-07-19T11:40:59.456Z,9784
2017-07-19T11:42:59.215Z,9668
2017-07-19T11:43:59.489Z,9748
2017-07-19T11:44:59.486Z,9700
2017-07-19T11:45:59.466Z,9736
2017-07-19T11:46:59.454Z,9668
2017-07-19T11:47:59.442Z,9568
2017-07-19T11:48:59.127Z,9628
2017-07-19T11:49:59.414Z,9160
2017-07-19T11:50:59.130Z,9220
2017-07-19T11:51:59.398Z,9284
2017-07-19T11:52:59.092Z,9564
2017-07-19T11:53:59.359Z,9904
2017-07-19T11:54:59.356Z,10240
2017-07-19T11:55:59.052Z,10432
2017-07-19T11:56:59.332Z,10792
2017-07-19T11:57:59.317Z,11204
2017-07-19T11:58:59.307Z,11668
2017-07-19T11:59:59.298Z,12244
2017-07-19T12:00:59.271Z,12764
2017-07-19T12:01:59.268Z,12932
2017-07-19T12:02:58.967Z,13516
2017-07-19T12:03:59.230Z,13980
2017-07-19T12:04:59.226Z,14004
2017-07-19T12:05:59.206Z,14084
2017-07-19T12:06:59.205Z,14920
2017-07-19T12:07:59.180Z,15424
2017-07-19T12:08:59.181Z,15432
2017-07-19T12:09:59.166Z,15156
2017-07-19T12:10:59.152Z,14596
2017-07-19T12:11:58.538Z,14048
2017-07-19T12:12:59.138Z,13724
2017-07-19T12:13:59.106Z,13368
2017-07-19T12:14:58.810Z,13068
2017-07-19T12:15:59.184Z,12852
2017-07-19T12:16:58.790Z,12640
2017-07-19T12:17:59.073Z,12480
2017-07-19T12:18:59.055Z,12240
2017-07-19T12:19:59.043Z,12036
2017-07-19T12:20:58.766Z,11808
2017-07-19T12:21:59.079Z,11608
2017-07-19T12:22:58.991Z,11312
2017-07-19T12:23:58.682Z,10956
2017-07-19T12:24:58.969Z,10672
2017-07-19T12:25:58.966Z,10412
2017-07-19T12:26:58.991Z,10240
2017-07-19T12:27:58.942Z,10216
2017-07-19T12:28:58.912Z,10132
2017-07-19T12:29:58.912Z,9940
2017-07-19T12:30:58.900Z,10052
2017-07-19T12:31:58.876Z,10408
2017-07-19T12:32:58.872Z,10120
2017-07-19T12:33:58.554Z,10012
2017-07-19T12:34:58.842Z,10016
2017-07-19T12:35:58.530Z,10048
2017-07-19T12:36:58.812Z,10296
2017-07-19T12:37:58.497Z,10448
2017-07-19T12:38:58.492Z,10580
2017-07-19T12:39:58.796Z,10792
2017-07-19T12:40:58.770Z,11012
2017-07-19T12:41:58.752Z,11148
2017-07-19T12:42:58.744Z,11244
2017-07-19T12:43:58.794Z,11312
2017-07-19T12:44:58.749Z,11216
2017-07-19T12:45:58.748Z,11024
2017-07-19T12:46:58.744Z,10624
2017-07-19T12:47:58.676Z,10032
2017-07-19T12:48:58.380Z,9612
2017-07-19T12:49:58.649Z,9352
2017-07-19T12:50:58.634Z,9444
2017-07-19T12:51:58.630Z,9580
2017-07-19T12:52:58.674Z,9580
2017-07-19T12:53:58.608Z,9416
2017-07-19T12:54:58.607Z,9372
2017-07-19T12:55:58.280Z,9356
2017-07-19T12:56:58.620Z,9056
2017-07-19T12:57:57.964Z,9196
2017-07-19T12:58:58.536Z,9488
2017-07-19T12:59:58.519Z,9688
2017-07-19T13:00:58.209Z,9740
2017-07-19T13:01:58.201Z,9780
2017-07-19T13:02:58.495Z,9836
2017-07-19T13:03:58.483Z,10244
2017-07-19T13:04:58.183Z,9900
2017-07-19T13:05:58.465Z,9616
2017-07-19T13:06:58.442Z,9368
2017-07-19T13:07:58.433Z,9088
2017-07-19T13:08:58.116Z,8816
2017-07-19T13:09:58.100Z,9120
2017-07-19T13:10:58.403Z,9720
2017-07-19T13:11:58.385Z,10316
2017-07-19T13:12:58.061Z,10736
2017-07-19T13:13:58.353Z,11040
2017-07-19T13:14:58.342Z,11204
2017-07-19T13:15:58.332Z,11196
2017-07-19T13:16:58.424Z,11004
2017-07-19T13:17:58.311Z,10696
2017-07-19T13:18:58.296Z,10320
2017-07-19T13:19:58.284Z,9984
2017-07-19T13:20:58.288Z,9740
2017-07-19T13:21:58.270Z,9616
2017-07-19T13:22:58.301Z,9312
2017-07-19T13:23:58.282Z,8968
2017-07-19T13:24:58.227Z,8792